createdAt,value
2017-10-08T00:02:20.742Z,35.30
2017-10-08T00:04:49.745Z,36.90
2017-10-08T00:07:18.030Z,36.23
2017-10-08T00:09:46.354Z,34.37
2017-10-08T00:12:14.644Z,34.20
2017-10-08T00:14:44.063Z,32.00
2017-10-08T00:17:12.398Z,34.33
2017-10-08T00:19:40.682Z,31.60
2017-10-08T00:22:08.971Z,35.53
2017-10-08T00:24:37.315Z,30.67
2017-10-08T00:27:05.594Z,32.10
2017-10-08T00:29:35.010Z,32.50
2017-10-08T00:32:03.333Z,30.07
2017-10-08T00:34:31.606Z,32.30
2017-10-08T00:36:59.891Z,30.77
2017-10-08T00:39:28.220Z,32.03
2017-10-08T00:41:57.271Z,31.60
2017-10-08T00:44:25.558Z,30.20
2017-10-08T00:46:53.902Z,32.53
2017-10-08T00:49:23.541Z,34.60
2017-10-08T00:51:51.705Z,32.57
2017-10-08T00:54:21.378Z,31.27
2017-10-08T00:56:49.930Z,37.33
2017-10-08T00:59:18.213Z,33.83
2017-10-08T01:01:46.562Z,33.70
2017-10-08T01:04:14.845Z,31.63
2017-10-08T01:06:43.131Z,34.47
2017-10-08T01:09:13.707Z,33.87
2017-10-08T01:11:43.004Z,33.30
2017-10-08T01:14:11.286Z,33.93
2017-10-08T01:16:39.629Z,32.90
2017-10-08T01:19:07.916Z,32.10
2017-10-08T01:21:36.201Z,30.60
2017-10-08T01:24:05.326Z,31.97
2017-10-08T01:26:34.377Z,32.40
2017-10-08T01:29:03.422Z,30.80
2017-10-08T01:31:31.763Z,31.30
2017-10-08T01:34:00.046Z,35.40
2017-10-08T01:36:29.835Z,31.50
2017-10-08T01:38:58.178Z,30.40
2017-10-08T01:41:27.994Z,32.33
2017-10-08T01:43:56.274Z,33.40
2017-10-08T01:46:25.012Z,33.80
2017-10-08T01:48:53.300Z,30.27
2017-10-08T01:51:22.351Z,33.50
2017-10-08T01:53:51.122Z,26.33
2017-10-08T01:56:19.405Z,30.17
2017-10-08T01:58:47.681Z,31.00
2017-10-08T02:01:16.016Z,35.63
2017-10-08T02:03:45.057Z,34.60
2017-10-08T02:06:14.105Z,34.50
2017-10-08T02:08:43.225Z,36.57
2017-10-08T02:11:12.282Z,32.87
2017-10-08T02:13:41.344Z,35.57
2017-10-08T02:16:09.675Z,32.37
2017-10-08T02:18:39.468Z,31.60
2017-10-08T02:21:07.756Z,34.60
2017-10-08T02:23:36.129Z,31.17
2017-10-08T02:26:04.418Z,31.30
2017-10-08T02:28:34.206Z,30.33
2017-10-08T02:31:02.540Z,31.60
2017-10-08T02:33:30.829Z,27.90
2017-10-08T02:35:59.101Z,31.07
2017-10-08T02:38:27.450Z,27.43
2017-10-08T02:40:57.238Z,26.10
2017-10-08T02:43:25.522Z,27.20
2017-10-08T02:45:54.127Z,27.90
2017-10-08T02:48:22.821Z,25.77
2017-10-08T02:50:51.098Z,25.70
2017-10-08T02:53:19.474Z,25.20
2017-10-08T02:55:47.747Z,24.10
2017-10-08T02:58:16.034Z,28.80
2017-10-08T03:00:45.506Z,24.43
2017-10-08T03:03:13.794Z,26.60
2017-10-08T03:05:42.082Z,26.40
2017-10-08T03:08:10.435Z,27.50
2017-10-08T03:10:38.711Z,26.77
2017-10-08T03:13:06.994Z,28.37
2017-10-08T03:15:35.330Z,24.20
2017-10-08T03:18:04.757Z,28.37
2017-10-08T03:20:33.035Z,29.57
2017-10-08T03:23:01.415Z,25.53
2017-10-08T03:25:30.470Z,26.40
2017-10-08T03:27:58.753Z,23.47
2017-10-08T03:30:27.107Z,26.20
2017-10-08T03:32:56.904Z,23.67
2017-10-08T03:35:25.187Z,22.63
2017-10-08T03:37:53.522Z,24.97
2017-10-08T03:40:21.806Z,25.07
2017-10-08T03:42:50.087Z,25.60
2017-10-08T03:45:19.549Z,26.03
2017-10-08T03:47:47.831Z,23.67
2017-10-08T03:50:16.116Z,25.40
2017-10-08T03:52:45.949Z,24.90
2017-10-08T03:55:14.999Z,24.47
2017-10-08T03:57:44.046Z,24.70
2017-10-08T04:00:13.748Z,25.60
2017-10-08T04:02:43.046Z,27.00
2017-10-08T04:05:12.466Z,26.13
2017-10-08T04:07:41.219Z,19.87
2017-10-08T04:10:09.502Z,22.87
2017-10-08T04:12:38.564Z,24.03
2017-10-08T04:15:08.517Z,23.63
2017-10-08T04:17:37.438Z,24.20
2017-10-08T04:20:06.867Z,25.87
2017-10-08T04:22:35.242Z,29.20
2017-10-08T04:25:03.525Z,26.37
2017-10-08T04:27:33.161Z,27.10
2017-10-08T04:30:02.154Z,27.67
2017-10-08T04:32:31.571Z,29.33
2017-10-08T04:34:59.854Z,27.80
2017-10-08T04:37:28.442Z,26.53
2017-10-08T04:39:56.738Z,30.00
2017-10-08T04:42:25.014Z,28.97
2017-10-08T04:44:54.137Z,27.13
2017-10-08T04:47:23.181Z,25.00
2017-10-08T04:49:51.469Z,24.47
2017-10-08T04:52:20.576Z,27.00
2017-10-08T04:54:48.867Z,22.47
2017-10-08T04:57:18.662Z,22.83
2017-10-08T04:59:47.045Z,27.53
2017-10-08T05:02:15.323Z,25.50
2017-10-08T05:04:43.602Z,26.60
2017-10-08T05:07:13.050Z,26.87
2017-10-08T05:09:41.730Z,29.20
2017-10-08T05:12:10.008Z,27.73
2017-10-08T05:14:38.354Z,30.93
2017-10-08T05:17:07.780Z,33.43
2017-10-08T05:19:36.056Z,31.67
2017-10-08T05:22:04.426Z,31.90
2017-10-08T05:24:32.711Z,33.20
2017-10-08T05:27:01.002Z,29.17
2017-10-08T05:29:30.695Z,29.27
2017-10-08T05:32:00.362Z,26.33
2017-10-08T05:34:28.642Z,29.80
2017-10-08T05:36:58.771Z,28.40
2017-10-08T05:39:27.055Z,29.03
2017-10-08T05:41:55.340Z,26.63
2017-10-08T05:44:25.049Z,26.23
2017-10-08T05:46:53.214Z,29.43
2017-10-08T05:49:21.493Z,30.60
2017-10-08T05:51:49.890Z,26.57
2017-10-08T05:54:18.173Z,25.70
2017-10-08T05:56:46.459Z,26.43
2017-10-08T05:59:15.951Z,26.60
2017-10-08T06:01:45.744Z,25.10
2017-10-08T06:04:14.790Z,24.70
2017-10-08T06:06:44.448Z,25.27
2017-10-08T06:09:13.965Z,23.17
2017-10-08T06:11:42.877Z,21.10
2017-10-08T06:14:11.222Z,24.17
2017-10-08T06:16:40.266Z,23.80
2017-10-08T06:19:08.554Z,22.93
2017-10-08T06:21:38.398Z,26.70
2017-10-08T06:24:08.035Z,24.10
2017-10-08T06:26:36.591Z,22.80
2017-10-08T06:29:04.922Z,23.30
2017-10-08T06:31:33.210Z,23.77
2017-10-08T06:34:01.510Z,23.60
2017-10-08T06:36:30.110Z,21.03
2017-10-08T06:38:58.390Z,19.20
2017-10-08T06:41:27.818Z,21.50
2017-10-08T06:43:56.168Z,21.93
2017-10-08T06:46:25.795Z,18.60
2017-10-08T06:48:54.346Z,20.07
2017-10-08T06:51:22.700Z,18.10
2017-10-08T06:53:50.983Z,18.63
2017-10-08T06:56:19.263Z,18.90
2017-10-08T06:58:48.400Z,18.73
2017-10-08T07:01:16.680Z,18.50
2017-10-08T07:03:44.953Z,20.00
2017-10-08T07:06:14.645Z,19.27
2017-10-08T07:08:42.801Z,17.43
2017-10-08T07:11:11.085Z,18.57
2017-10-08T07:13:39.836Z,16.60
2017-10-08T07:16:09.634Z,16.47
2017-10-08T07:18:37.924Z,16.80
2017-10-08T07:21:07.718Z,16.60
2017-10-08T07:23:36.007Z,14.60
2017-10-08T07:26:04.294Z,17.40
2017-10-08T07:28:32.634Z,14.40
2017-10-08T07:31:02.428Z,14.93
2017-10-08T07:33:30.715Z,15.27
2017-10-08T07:35:59.813Z,14.17
2017-10-08T07:38:28.105Z,14.80
2017-10-08T07:40:56.383Z,15.20
2017-10-08T07:43:26.058Z,14.03
2017-10-08T07:45:54.217Z,13.20
2017-10-08T07:48:22.507Z,13.23
2017-10-08T07:50:50.842Z,12.73
2017-10-08T07:53:19.158Z,14.23
2017-10-08T07:55:47.447Z,11.03
2017-10-08T07:58:15.779Z,12.43
2017-10-08T08:00:45.197Z,12.67
2017-10-08T08:03:13.487Z,13.00
2017-10-08T08:05:42.267Z,12.10
2017-10-08T08:08:11.684Z,12.00
2017-10-08T08:10:39.973Z,10.73
2017-10-08T08:13:08.311Z,11.37
2017-10-08T08:15:36.591Z,10.13
2017-10-08T08:18:04.880Z,10.27
2017-10-08T08:20:34.577Z,10.30
2017-10-08T08:23:03.883Z,10.30
2017-10-08T08:25:32.174Z,8.93
2017-10-08T08:28:00.503Z,9.73
2017-10-08T08:30:28.798Z,10.17
2017-10-08T08:32:57.083Z,9.77
2017-10-08T08:35:26.549Z,9.30
2017-10-08T08:37:54.829Z,10.70
2017-10-08T08:40:23.119Z,9.43
2017-10-08T08:42:51.465Z,9.60
2017-10-08T08:45:21.253Z,11.47
2017-10-08T08:47:49.535Z,8.53
2017-10-08T08:50:17.863Z,8.67
2017-10-08T08:52:46.148Z,7.50
2017-10-08T08:55:14.420Z,6.47
2017-10-08T08:57:43.526Z,6.10
2017-10-08T09:00:12.578Z,7.40
2017-10-08T09:02:41.630Z,5.07
2017-10-08T09:05:09.947Z,5.57
2017-10-08T09:07:38.227Z,4.70
2017-10-08T09:10:06.502Z,5.00
2017-10-08T09:12:34.813Z,6.23
2017-10-08T09:15:03.085Z,5.90
2017-10-08T09:17:32.509Z,4.70
2017-10-08T09:20:01.593Z,3.57
2017-10-08T09:22:30.649Z,3.03
2017-10-08T09:24:58.930Z,2.53
2017-10-08T09:27:27.256Z,2.07
2017-10-08T09:29:56.882Z,1.30
2017-10-08T09:32:25.800Z,1.57
2017-10-08T09:34:54.135Z,1.10
2017-10-08T09:37:22.422Z,1.13
2017-10-08T09:39:51.458Z,1.13
2017-10-08T09:42:20.546Z,1.00
2017-10-08T09:44:49.599Z,1.13
2017-10-08T09:47:19.618Z,1.33
2017-10-08T09:49:48.582Z,0.93
2017-10-08T09:52:17.993Z,1.17
2017-10-08T09:54:46.277Z,1.47
2017-10-08T09:57:14.606Z,1.17
2017-10-08T09:59:44.387Z,1.10
2017-10-08T10:02:12.907Z,1.60
2017-10-08T10:04:41.618Z,1.67
2017-10-08T10:07:10.666Z,1.50
2017-10-08T10:09:39.707Z,1.33
2017-10-08T10:12:08.050Z,0.97
2017-10-08T10:14:37.098Z,1.30
2017-10-08T10:17:05.766Z,1.50
2017-10-08T10:19:34.130Z,1.17
2017-10-08T10:22:03.172Z,1.43
2017-10-08T10:24:31.491Z,1.00
2017-10-08T10:26:59.806Z,1.93
2017-10-08T10:29:28.087Z,2.13
2017-10-08T10:31:57.127Z,1.57
2017-10-08T10:34:26.590Z,1.50
2017-10-08T10:36:54.870Z,1.53
2017-10-08T10:39:23.924Z,1.50
2017-10-08T10:41:52.229Z,1.33
2017-10-08T10:44:20.506Z,1.13
2017-10-08T10:46:49.545Z,1.13
2017-10-08T10:49:19.406Z,1.33
2017-10-08T10:51:49.026Z,1.27
2017-10-08T10:54:17.189Z,1.27
2017-10-08T10:56:45.546Z,1.40
2017-10-08T10:59:15.169Z,0.97
2017-10-08T11:01:45.111Z,1.37
2017-10-08T11:04:14.154Z,1.10
2017-10-08T11:06:43.194Z,1.00
2017-10-08T11:09:13.142Z,1.30
2017-10-08T11:11:41.749Z,2.03
2017-10-08T11:14:10.029Z,1.30
2017-10-08T11:16:39.874Z,1.40
2017-10-08T11:19:09.651Z,1.00
2017-10-08T11:21:37.930Z,1.17
2017-10-08T11:24:06.575Z,0.63
2017-10-08T11:26:34.845Z,0.60
2017-10-08T11:29:03.125Z,0.80
2017-10-08T11:31:32.958Z,1.10
2017-10-08T11:34:02.586Z,0.90
2017-10-08T11:36:31.130Z,1.17
2017-10-08T11:38:59.454Z,1.00
2017-10-08T11:41:27.735Z,1.20
2017-10-08T11:43:56.011Z,0.80
2017-10-08T11:46:25.397Z,0.87
2017-10-08T11:48:54.438Z,1.10
2017-10-08T11:51:23.481Z,1.30
2017-10-08T11:53:53.369Z,1.00
2017-10-08T11:56:21.642Z,1.07
2017-10-08T11:58:49.958Z,1.30
2017-10-08T12:01:20.226Z,1.07
2017-10-08T12:03:48.503Z,0.90
2017-10-08T12:06:17.166Z,0.77
2017-10-08T12:08:46.235Z,1.30
2017-10-08T12:11:14.516Z,1.30
2017-10-08T12:13:43.559Z,1.33
2017-10-08T12:16:13.023Z,1.37
2017-10-08T12:18:41.694Z,1.33
2017-10-08T12:21:10.739Z,1.20
2017-10-08T12:23:40.414Z,2.03
2017-10-08T12:26:09.704Z,1.20
2017-10-08T12:28:37.979Z,1.00
2017-10-08T12:31:06.310Z,1.23
2017-10-08T12:33:35.346Z,1.60
2017-10-08T12:36:03.614Z,1.20
2017-10-08T12:38:31.954Z,1.40
2017-10-08T12:41:00.230Z,1.53
2017-10-08T12:43:28.506Z,1.70
2017-10-08T12:45:56.855Z,2.30
2017-10-08T12:48:25.906Z,1.97
2017-10-08T12:50:54.178Z,2.00
2017-10-08T12:53:23.220Z,1.90
2017-10-08T12:55:52.666Z,1.50
2017-10-08T12:58:20.938Z,1.83
2017-10-08T13:00:50.608Z,1.40
2017-10-08T13:03:20.769Z,1.57
2017-10-08T13:05:49.546Z,1.53
2017-10-08T13:08:17.871Z,1.90
2017-10-08T13:10:46.915Z,1.90
2017-10-08T13:13:16.327Z,3.67
2017-10-08T13:15:45.050Z,2.80
2017-10-08T13:18:13.324Z,3.30
2017-10-08T13:20:41.601Z,4.27
2017-10-08T13:23:09.935Z,2.93
2017-10-08T13:25:38.212Z,2.80
2017-10-08T13:28:06.487Z,3.27
2017-10-08T13:30:35.217Z,2.60
2017-10-08T13:33:03.899Z,1.83
2017-10-08T13:35:32.183Z,2.00
2017-10-08T13:38:00.867Z,1.87
2017-10-08T13:40:29.181Z,2.00
2017-10-08T13:42:57.519Z,1.80
2017-10-08T13:45:27.459Z,1.73
2017-10-08T13:47:56.498Z,1.87
2017-10-08T13:50:24.783Z,2.27
2017-10-08T13:52:53.923Z,2.27
2017-10-08T13:55:22.966Z,2.47
2017-10-08T13:57:51.240Z,1.70
2017-10-08T14:00:20.343Z,2.53
2017-10-08T14:02:50.287Z,3.00
2017-10-08T14:05:19.200Z,1.40
2017-10-08T14:07:47.572Z,1.67
2017-10-08T14:10:15.841Z,1.60
2017-10-08T14:12:44.882Z,1.77
2017-10-08T14:15:14.562Z,2.23
2017-10-08T14:17:42.706Z,2.77
2017-10-08T14:20:10.997Z,2.17
2017-10-08T14:22:40.854Z,1.50
2017-10-08T14:25:09.131Z,2.40
2017-10-08T14:27:38.754Z,1.90
2017-10-08T14:30:08.977Z,1.50
2017-10-08T14:32:37.650Z,1.80
2017-10-08T14:35:05.934Z,1.50
2017-10-08T14:37:34.649Z,1.00
2017-10-08T14:40:04.074Z,1.17
2017-10-08T14:42:33.136Z,1.13
2017-10-08T14:45:01.495Z,1.03
2017-10-08T14:47:29.745Z,0.90
2017-10-08T14:49:58.028Z,1.63
2017-10-08T14:52:26.354Z,1.20
2017-10-08T14:54:54.638Z,1.60
2017-10-08T14:57:22.919Z,1.03
2017-10-08T14:59:52.593Z,1.23
2017-10-08T15:02:22.248Z,2.13
2017-10-08T15:04:50.526Z,1.07
2017-10-08T15:07:18.865Z,1.70
2017-10-08T15:09:47.141Z,1.60
2017-10-08T15:12:15.432Z,1.17
2017-10-08T15:17:18.541Z,1.70
2017-10-08T15:19:48.225Z,1.40
2017-10-08T15:22:17.526Z,1.50
2017-10-08T15:24:46.944Z,1.40
2017-10-08T15:27:16.322Z,1.20
2017-10-08T15:29:44.990Z,1.03
2017-10-08T15:32:13.274Z,1.27
2017-10-08T15:34:41.946Z,2.00
2017-10-08T15:37:10.222Z,1.53
2017-10-08T15:39:38.509Z,1.90
2017-10-08T15:42:06.849Z,1.60
2017-10-08T15:44:35.896Z,1.30
2017-10-08T15:47:04.569Z,1.10
2017-10-08T15:49:33.210Z,1.10
2017-10-08T15:52:02.829Z,1.77
2017-10-08T15:54:32.128Z,1.70
2017-10-08T15:57:00.486Z,1.83
2017-10-08T15:59:28.763Z,1.40
2017-10-08T16:01:57.067Z,1.33
2017-10-08T16:04:25.396Z,1.70
2017-10-08T16:06:53.686Z,2.23
2017-10-08T16:09:22.740Z,1.30
2017-10-08T16:11:51.491Z,1.27
2017-10-08T16:14:19.770Z,1.50
2017-10-08T16:16:48.037Z,2.23
2017-10-08T16:19:16.374Z,1.90
2017-10-08T16:21:45.798Z,2.20
2017-10-08T16:24:14.071Z,1.30
2017-10-08T16:26:42.402Z,1.30
2017-10-08T16:29:12.030Z,1.50
2017-10-08T16:31:40.578Z,1.50
2017-10-08T16:34:09.227Z,1.67
2017-10-08T16:36:39.006Z,2.13
2017-10-08T16:39:08.055Z,1.90
2017-10-08T16:41:36.391Z,1.50
2017-10-08T16:44:04.663Z,1.70
2017-10-08T16:46:32.934Z,1.90
2017-10-08T16:49:13.127Z,1.97
2017-10-08T16:51:42.906Z,1.93
2017-10-08T16:54:11.212Z,1.80
2017-10-08T16:56:39.539Z,2.13
2017-10-08T16:59:07.810Z,1.70
2017-10-08T17:01:36.092Z,1.60
2017-10-08T17:04:04.438Z,2.03
2017-10-08T17:06:32.712Z,2.33
2017-10-08T17:09:00.990Z,2.00
2017-10-08T17:11:30.786Z,2.80
2017-10-08T17:13:59.064Z,2.50
2017-10-08T17:16:27.734Z,2.67
2017-10-08T17:18:56.053Z,2.83
2017-10-08T17:21:25.466Z,3.47
2017-10-08T17:23:54.138Z,2.43
2017-10-08T17:26:22.474Z,2.47
2017-10-08T17:28:50.751Z,2.80
2017-10-08T17:31:19.024Z,2.40
2017-10-08T17:33:47.426Z,3.03
2017-10-08T17:36:15.697Z,2.23
2017-10-08T17:38:43.983Z,3.73
2017-10-08T17:41:12.346Z,2.77
2017-10-08T17:43:41.374Z,4.20
2017-10-08T17:46:09.650Z,4.53
2017-10-08T17:48:38.747Z,3.53
2017-10-08T17:51:07.027Z,2.93
2017-10-08T17:53:36.434Z,3.60
2017-10-08T17:56:04.763Z,2.73
2017-10-08T17:58:33.035Z,3.43
2017-10-08T18:01:01.707Z,3.07
2017-10-08T18:03:30.036Z,3.80
2017-10-08T18:05:58.302Z,3.33
2017-10-08T18:08:26.577Z,3.13
2017-10-08T18:10:54.929Z,3.27
2017-10-08T18:13:23.203Z,3.63
2017-10-08T18:15:51.486Z,4.23
2017-10-08T18:18:19.810Z,4.43
2017-10-08T18:20:48.090Z,4.07
2017-10-08T18:23:17.139Z,4.63
2017-10-08T18:25:45.445Z,4.17
2017-10-08T18:28:13.735Z,3.23
2017-10-08T18:30:42.002Z,3.20
2017-10-08T18:33:10.654Z,4.50
2017-10-08T18:35:38.945Z,4.40
2017-10-08T18:38:07.614Z,3.50
2017-10-08T18:40:36.761Z,3.10
2017-10-08T18:43:05.806Z,3.60
2017-10-08T18:45:34.087Z,4.50
2017-10-08T18:48:02.410Z,4.80
2017-10-08T18:50:32.048Z,13.53
2017-10-08T18:53:00.215Z,10.60
2017-10-08T18:55:28.547Z,5.67
2017-10-08T18:57:56.826Z,3.60
2017-10-08T19:00:25.105Z,3.50
2017-10-08T19:02:55.301Z,3.10
2017-10-08T19:05:23.585Z,2.90
2017-10-08T19:07:51.875Z,3.17
2017-10-08T19:10:20.238Z,3.53
2017-10-08T19:12:48.510Z,2.97
2017-10-08T19:15:17.924Z,3.70
2017-10-08T19:17:46.246Z,3.50
2017-10-08T19:20:14.530Z,5.10
2017-10-08T19:22:42.802Z,5.13
2017-10-08T19:25:12.477Z,5.63
2017-10-08T19:27:41.763Z,4.83
2017-10-08T19:30:10.046Z,5.93
2017-10-08T19:32:39.733Z,4.83
2017-10-08T19:35:08.287Z,5.37
2017-10-08T19:37:36.959Z,5.20
2017-10-08T19:40:05.350Z,4.60
2017-10-08T19:42:34.399Z,5.37
2017-10-08T19:45:02.670Z,5.23
2017-10-08T19:47:31.271Z,4.80
2017-10-08T19:49:59.549Z,5.13
2017-10-08T19:52:29.337Z,5.07
2017-10-08T19:54:57.657Z,5.50
2017-10-08T19:57:25.937Z,4.77
2017-10-08T19:59:54.222Z,7.00
2017-10-08T20:02:22.560Z,5.90
2017-10-08T20:04:50.831Z,5.60
2017-10-08T20:07:19.508Z,5.87
2017-10-08T20:09:48.608Z,6.47
2017-10-08T20:12:18.028Z,5.57
2017-10-08T20:14:46.396Z,5.83
2017-10-08T20:17:15.035Z,6.30
2017-10-08T20:19:44.078Z,5.60
2017-10-08T20:22:12.347Z,5.87
2017-10-08T20:24:41.050Z,6.17
2017-10-08T20:27:09.337Z,5.30
2017-10-08T20:29:37.618Z,6.60
2017-10-08T20:32:05.954Z,6.23
2017-10-08T20:34:34.231Z,5.90
2017-10-08T20:37:02.516Z,6.43
2017-10-08T20:39:31.628Z,7.93
2017-10-08T20:42:01.042Z,5.77
2017-10-08T20:44:29.326Z,7.10
2017-10-08T20:46:58.410Z,6.67
2017-10-08T20:49:26.690Z,7.20
2017-10-08T20:51:55.734Z,8.27
2017-10-08T20:54:24.110Z,7.33
2017-10-08T20:56:53.155Z,6.40
2017-10-08T20:59:21.839Z,6.40
2017-10-08T21:01:50.958Z,7.50
2017-10-08T21:04:20.031Z,7.70
2017-10-08T21:06:48.314Z,7.70
2017-10-08T21:09:16.655Z,6.80
2017-10-08T21:11:44.922Z,7.70
2017-10-08T21:14:13.198Z,7.07
2017-10-08T21:16:41.855Z,7.80
2017-10-08T21:19:11.481Z,7.53
2017-10-08T21:21:39.638Z,8.20
2017-10-08T21:24:08.762Z,7.13
2017-10-08T21:26:38.393Z,6.77
2017-10-08T21:29:06.543Z,7.60
2017-10-08T21:31:35.678Z,7.87
2017-10-08T21:34:05.466Z,6.80
2017-10-08T21:36:33.742Z,7.00
2017-10-08T21:39:03.250Z,6.80
2017-10-08T21:41:31.943Z,8.00
2017-10-08T21:44:00.213Z,8.07
2017-10-08T21:46:28.550Z,6.87
2017-10-08T21:48:56.817Z,8.30
2017-10-08T21:51:25.098Z,8.17
2017-10-08T21:53:54.702Z,6.63
2017-10-08T21:56:22.974Z,9.10
2017-10-08T21:58:51.307Z,8.50
2017-10-08T22:01:19.622Z,8.57
2017-10-08T22:03:47.907Z,8.30
2017-10-08T22:06:16.177Z,7.17
2017-10-08T22:08:45.294Z,7.67
2017-10-08T22:11:13.586Z,8.43
2017-10-08T22:13:42.638Z,7.70
2017-10-08T22:16:11.250Z,7.97
2017-10-08T22:18:39.539Z,8.47
2017-10-08T22:21:07.814Z,7.67
2017-10-08T22:23:36.142Z,8.10
2017-10-08T22:26:05.772Z,7.40
2017-10-08T22:28:33.926Z,8.20
2017-10-08T22:31:03.052Z,8.10
2017-10-08T22:33:32.470Z,8.40
2017-10-08T22:36:01.515Z,8.30
2017-10-08T22:38:29.852Z,7.67
2017-10-08T22:40:58.885Z,7.07
2017-10-08T22:43:27.158Z,7.37
2017-10-08T22:45:55.495Z,7.90
2017-10-08T22:48:23.771Z,8.17
2017-10-08T22:50:52.046Z,7.10
2017-10-08T22:53:21.658Z,7.37
2017-10-08T22:55:51.082Z,7.40
2017-10-08T22:58:20.713Z,8.07
2017-10-08T23:00:48.928Z,6.80
2017-10-08T23:03:17.598Z,7.20
2017-10-08T23:05:45.870Z,7.10
2017-10-08T23:08:14.190Z,7.70
2017-10-08T23:10:42.470Z,7.07
2017-10-08T23:13:11.890Z,8.70
2017-10-08T23:15:40.232Z,7.47
2017-10-08T23:18:08.507Z,6.57
2017-10-08T23:20:36.783Z,7.23
2017-10-08T23:23:05.106Z,6.70
2017-10-08T23:25:33.378Z,6.57
2017-10-08T23:28:02.431Z,6.17
2017-10-08T23:30:30.747Z,6.80
2017-10-08T23:32:59.027Z,6.10
2017-10-08T23:35:27.299Z,6.80
2017-10-08T23:37:56.405Z,5.63
2017-10-08T23:40:24.686Z,5.80
2017-10-08T23:42:53.354Z,6.30
2017-10-08T23:45:21.734Z,6.97
2017-10-08T23:47:51.515Z,6.30
2017-10-08T23:50:19.814Z,6.03
2017-10-08T23:52:48.447Z,7.50
2017-10-08T23:55:16.723Z,7.20
2017-10-08T23:57:45.000Z,7.90
